EZY706N EGKK-EGPH
Flight info
| Callsign | EZY706N |
|---|---|
| Flight time | 0h 54m |
| Altitude | 38000 |
| Route | LAM L10 BPK UN601 RIBEL DCT INPIP |
| Aircraft | A320/M-SDE3FGHIRWY/LB1 |
Departure
| Time | 2026-05-08 05:46 |
|---|---|
| Airport | London Gatwick Airport (EGKK) |
Arrival
| Time | 2026-05-08 06:40 |
|---|---|
| Airport | Edinburgh Airport (EGPH) |
| Time | Latitude | Longitude | Altitude | Speed | Heading |
|---|---|---|---|---|---|
| 2026-05-08 05:36 | 51.15776 | -0.17938 | 215 ft | 0 kts | 32° |
| 2026-05-08 05:36 | 51.15770 | -0.17944 | 213 ft | 4 kts | 32° |
| 2026-05-08 05:36 | 51.15749 | -0.17965 | 216 ft | 2 kts | 32° |
| 2026-05-08 05:37 | 51.15736 | -0.17986 | 212 ft | 4 kts | 80° |
| 2026-05-08 05:37 | 51.15731 | -0.18025 | 215 ft | 4 kts | 106° |
| 2026-05-08 05:37 | 51.15746 | -0.18045 | 208 ft | 4 kts | 167° |
| 2026-05-08 05:37 | 51.15771 | -0.18053 | 208 ft | 4 kts | 167° |
| 2026-05-08 05:38 | 51.15797 | -0.18062 | 214 ft | 3 kts | 167° |
| 2026-05-08 05:38 | 51.15816 | -0.18069 | 209 ft | 2 kts | 167° |
| 2026-05-08 05:38 | 51.15817 | -0.18069 | 209 ft | 0 kts | 167° |
| 2026-05-08 05:39 | 51.15774 | -0.18054 | 211 ft | 11 kts | 167° |
| 2026-05-08 05:39 | 51.15707 | -0.18041 | 204 ft | 9 kts | 194° |
| 2026-05-08 05:39 | 51.15674 | -0.18140 | 213 ft | 16 kts | 258° |
| 2026-05-08 05:40 | 51.15652 | -0.18299 | 206 ft | 12 kts | 257° |
| 2026-05-08 05:40 | 51.15593 | -0.18347 | 209 ft | 10 kts | 167° |
| 2026-05-08 05:40 | 51.15487 | -0.18309 | 206 ft | 23 kts | 168° |
| 2026-05-08 05:40 | 51.15346 | -0.18260 | 204 ft | 20 kts | 167° |
| 2026-05-08 05:41 | 51.15228 | -0.18221 | 204 ft | 14 kts | 175° |
| 2026-05-08 05:41 | 51.15185 | -0.18323 | 209 ft | 13 kts | 264° |
| 2026-05-08 05:41 | 51.15160 | -0.18512 | 212 ft | 20 kts | 257° |
| 2026-05-08 05:41 | 51.15130 | -0.18729 | 203 ft | 21 kts | 258° |
| 2026-05-08 05:42 | 51.15098 | -0.18963 | 213 ft | 22 kts | 257° |
| 2026-05-08 05:42 | 51.15070 | -0.19166 | 206 ft | 18 kts | 258° |
| 2026-05-08 05:42 | 51.15025 | -0.19265 | 208 ft | 9 kts | 190° |
| 2026-05-08 05:42 | 51.14967 | -0.19285 | 212 ft | 14 kts | 222° |
| 2026-05-08 05:43 | 51.14927 | -0.19531 | 208 ft | 29 kts | 258° |
| 2026-05-08 05:43 | 51.14886 | -0.19835 | 208 ft | 27 kts | 257° |
| 2026-05-08 05:43 | 51.14844 | -0.20139 | 203 ft | 29 kts | 258° |
| 2026-05-08 05:43 | 51.14801 | -0.20450 | 211 ft | 28 kts | 258° |
| 2026-05-08 05:44 | 51.14759 | -0.20761 | 203 ft | 29 kts | 257° |
| 2026-05-08 05:44 | 51.14727 | -0.20948 | 211 ft | 10 kts | 235° |
| 2026-05-08 05:44 | 51.14656 | -0.20971 | 207 ft | 12 kts | 163° |
| 2026-05-08 05:44 | 51.14588 | -0.20914 | 209 ft | 10 kts | 141° |
| 2026-05-08 05:45 | 51.14568 | -0.20827 | 214 ft | 10 kts | 83° |
| 2026-05-08 05:45 | 51.14618 | -0.20462 | 208 ft | 69 kts | 77° |
| 2026-05-08 05:45 | 51.14769 | -0.19364 | 205 ft | 131 kts | 78° |
| 2026-05-08 05:45 | 51.14999 | -0.17717 | 391 ft | 162 kts | 77° |
| 2026-05-08 05:46 | 51.15242 | -0.15970 | 1077 ft | 163 kts | 79° |
| 2026-05-08 05:46 | 51.15480 | -0.14203 | 1681 ft | 172 kts | 81° |
| 2026-05-08 05:46 | 51.15747 | -0.12221 | 2023 ft | 194 kts | 81° |
| 2026-05-08 05:46 | 51.16049 | -0.09978 | 2365 ft | 219 kts | 81° |
| 2026-05-08 05:47 | 51.16415 | -0.07483 | 2822 ft | 244 kts | 72° |
| 2026-05-08 05:47 | 51.17336 | -0.05086 | 3462 ft | 262 kts | 52° |
| 2026-05-08 05:47 | 51.18701 | -0.03133 | 4330 ft | 269 kts | 29° |
| 2026-05-08 05:47 | 51.20501 | -0.02284 | 5233 ft | 275 kts | 2° |
| 2026-05-08 05:48 | 51.22420 | -0.02488 | 6155 ft | 278 kts | 354° |
| 2026-05-08 05:48 | 51.24353 | -0.02800 | 7047 ft | 281 kts | 353° |
| 2026-05-08 05:48 | 51.26308 | -0.03117 | 7908 ft | 284 kts | 353° |
| 2026-05-08 05:48 | 51.28263 | -0.03428 | 8764 ft | 288 kts | 353° |
| 2026-05-08 05:49 | 51.30269 | -0.03743 | 9631 ft | 291 kts | 352° |
| 2026-05-08 05:49 | 51.32304 | -0.04056 | 10350 ft | 300 kts | 352° |
| 2026-05-08 05:49 | 51.34466 | -0.04388 | 10619 ft | 324 kts | 352° |
| 2026-05-08 05:49 | 51.36763 | -0.04742 | 11087 ft | 337 kts | 352° |
| 2026-05-08 05:50 | 51.39122 | -0.05102 | 11787 ft | 343 kts | 353° |
| 2026-05-08 05:50 | 51.41510 | -0.05464 | 12523 ft | 347 kts | 353° |
| 2026-05-08 05:50 | 51.43931 | -0.05832 | 13254 ft | 352 kts | 353° |
| 2026-05-08 05:50 | 51.46382 | -0.06212 | 13971 ft | 356 kts | 353° |
| 2026-05-08 05:51 | 51.48868 | -0.06603 | 14598 ft | 361 kts | 353° |
| 2026-05-08 05:51 | 51.51376 | -0.06999 | 15226 ft | 365 kts | 353° |
| 2026-05-08 05:51 | 51.53879 | -0.07391 | 15852 ft | 369 kts | 353° |
| 2026-05-08 05:51 | 51.56447 | -0.07789 | 16480 ft | 373 kts | 353° |
| 2026-05-08 05:52 | 51.59043 | -0.08189 | 17089 ft | 377 kts | 353° |
| 2026-05-08 05:52 | 51.61667 | -0.08590 | 17696 ft | 381 kts | 353° |
| 2026-05-08 05:52 | 51.64319 | -0.08997 | 18302 ft | 385 kts | 353° |
| 2026-05-08 05:52 | 51.66996 | -0.09417 | 18842 ft | 389 kts | 353° |
| 2026-05-08 05:53 | 51.69701 | -0.09841 | 19405 ft | 391 kts | 353° |
| 2026-05-08 05:53 | 51.71499 | -0.10121 | 19787 ft | 393 kts | 353° |
| 2026-05-08 05:53 | 51.74192 | -0.10912 | 20353 ft | 394 kts | 342° |
| 2026-05-08 05:53 | 51.76761 | -0.12463 | 20917 ft | 395 kts | 332° |
| 2026-05-08 05:54 | 51.79156 | -0.14637 | 21491 ft | 396 kts | 327° |
| 2026-05-08 05:54 | 51.82309 | -0.17651 | 22268 ft | 399 kts | 327° |
| 2026-05-08 05:54 | 51.84708 | -0.19938 | 22830 ft | 401 kts | 327° |
| 2026-05-08 05:54 | 51.87120 | -0.22237 | 23378 ft | 404 kts | 327° |
| 2026-05-08 05:55 | 51.88729 | -0.23771 | 23717 ft | 406 kts | 327° |
| 2026-05-08 05:55 | 51.91168 | -0.26098 | 24141 ft | 408 kts | 327° |
| 2026-05-08 05:55 | 51.93621 | -0.28443 | 24556 ft | 411 kts | 327° |
| 2026-05-08 05:55 | 51.96090 | -0.30814 | 24966 ft | 413 kts | 327° |
| 2026-05-08 05:56 | 51.98569 | -0.33200 | 25371 ft | 416 kts | 327° |
| 2026-05-08 05:56 | 52.01065 | -0.35600 | 25755 ft | 418 kts | 327° |
| 2026-05-08 05:56 | 52.03574 | -0.38016 | 26133 ft | 421 kts | 327° |
| 2026-05-08 05:56 | 52.06101 | -0.40448 | 26510 ft | 423 kts | 327° |
| 2026-05-08 05:57 | 52.08638 | -0.42894 | 26885 ft | 425 kts | 327° |
| 2026-05-08 05:57 | 52.11191 | -0.45357 | 27260 ft | 428 kts | 327° |
| 2026-05-08 05:57 | 52.13755 | -0.47835 | 27609 ft | 430 kts | 327° |
| 2026-05-08 05:57 | 52.16334 | -0.50331 | 27966 ft | 432 kts | 327° |
| 2026-05-08 05:58 | 52.18890 | -0.52811 | 28310 ft | 434 kts | 327° |
| 2026-05-08 05:58 | 52.21490 | -0.55341 | 28651 ft | 437 kts | 327° |
| 2026-05-08 05:58 | 52.24103 | -0.57885 | 28983 ft | 439 kts | 327° |
| 2026-05-08 05:58 | 52.26732 | -0.60445 | 29301 ft | 441 kts | 327° |
| 2026-05-08 05:59 | 52.29374 | -0.63021 | 29632 ft | 443 kts | 327° |
| 2026-05-08 05:59 | 52.32022 | -0.65608 | 29964 ft | 444 kts | 327° |
| 2026-05-08 05:59 | 52.34678 | -0.68207 | 30249 ft | 446 kts | 327° |
| 2026-05-08 05:59 | 52.37349 | -0.70822 | 30499 ft | 448 kts | 327° |
| 2026-05-08 06:00 | 52.40026 | -0.73448 | 30750 ft | 449 kts | 326° |
| 2026-05-08 06:00 | 52.42710 | -0.76085 | 30994 ft | 451 kts | 327° |
| 2026-05-08 06:00 | 52.45404 | -0.78732 | 31227 ft | 452 kts | 327° |
| 2026-05-08 06:00 | 52.48104 | -0.81386 | 31500 ft | 452 kts | 327° |
| 2026-05-08 06:01 | 52.50792 | -0.84038 | 31834 ft | 451 kts | 326° |
| 2026-05-08 06:01 | 52.53441 | -0.86658 | 32172 ft | 449 kts | 326° |
| 2026-05-08 06:01 | 52.56112 | -0.89302 | 32521 ft | 448 kts | 326° |
| 2026-05-08 06:01 | 52.58780 | -0.91946 | 32855 ft | 447 kts | 326° |
| 2026-05-08 06:02 | 52.61435 | -0.94585 | 33171 ft | 446 kts | 326° |
| 2026-05-08 06:02 | 52.64086 | -0.97222 | 33490 ft | 445 kts | 326° |
| 2026-05-08 06:02 | 52.66733 | -0.99853 | 33813 ft | 444 kts | 326° |
| 2026-05-08 06:02 | 52.69373 | -1.02478 | 34159 ft | 442 kts | 326° |
| 2026-05-08 06:03 | 52.71995 | -1.05097 | 34463 ft | 440 kts | 326° |
| 2026-05-08 06:03 | 52.74611 | -1.07715 | 34756 ft | 440 kts | 326° |
| 2026-05-08 06:03 | 52.77224 | -1.10333 | 35021 ft | 439 kts | 326° |
| 2026-05-08 06:03 | 52.79835 | -1.12951 | 35265 ft | 439 kts | 326° |
| 2026-05-08 06:04 | 52.82440 | -1.15565 | 35490 ft | 438 kts | 326° |
| 2026-05-08 06:04 | 52.85048 | -1.18186 | 35712 ft | 438 kts | 326° |
| 2026-05-08 06:04 | 52.87616 | -1.20769 | 35910 ft | 438 kts | 326° |
| 2026-05-08 06:04 | 52.90223 | -1.23395 | 36124 ft | 438 kts | 326° |
| 2026-05-08 06:05 | 52.92824 | -1.26024 | 36321 ft | 438 kts | 326° |
| 2026-05-08 06:05 | 52.95423 | -1.28659 | 36516 ft | 438 kts | 326° |
| 2026-05-08 06:05 | 52.98023 | -1.31296 | 36706 ft | 438 kts | 326° |
| 2026-05-08 06:05 | 53.00626 | -1.33935 | 36904 ft | 438 kts | 326° |
| 2026-05-08 06:06 | 53.03226 | -1.36575 | 37083 ft | 438 kts | 326° |
| 2026-05-08 06:06 | 53.05825 | -1.39217 | 37258 ft | 438 kts | 326° |
| 2026-05-08 06:06 | 53.08429 | -1.41864 | 37431 ft | 438 kts | 326° |
| 2026-05-08 06:06 | 53.11032 | -1.44513 | 37599 ft | 438 kts | 326° |
| 2026-05-08 06:07 | 53.13627 | -1.47163 | 37760 ft | 438 kts | 325° |
| 2026-05-08 06:07 | 53.16226 | -1.49824 | 37920 ft | 438 kts | 325° |
| 2026-05-08 06:07 | 53.18785 | -1.52447 | 38051 ft | 438 kts | 325° |
| 2026-05-08 06:08 | 53.23973 | -1.57769 | 38066 ft | 436 kts | 325° |
| 2026-05-08 06:08 | 53.29145 | -1.63090 | 38080 ft | 437 kts | 325° |
| 2026-05-08 06:09 | 53.34318 | -1.68435 | 38062 ft | 437 kts | 325° |
| 2026-05-08 06:09 | 53.39487 | -1.73783 | 38069 ft | 437 kts | 325° |
| 2026-05-08 06:10 | 53.44655 | -1.79149 | 38074 ft | 437 kts | 325° |
| 2026-05-08 06:10 | 53.49788 | -1.84494 | 38080 ft | 437 kts | 325° |
| 2026-05-08 06:11 | 53.54963 | -1.89882 | 38075 ft | 437 kts | 325° |
| 2026-05-08 06:11 | 53.60130 | -1.95284 | 38076 ft | 437 kts | 325° |
| 2026-05-08 06:12 | 53.65294 | -2.00712 | 38078 ft | 437 kts | 325° |
| 2026-05-08 06:12 | 53.70449 | -2.06161 | 38080 ft | 437 kts | 324° |
| 2026-05-08 06:13 | 53.75707 | -2.11225 | 38091 ft | 441 kts | 334° |
| 2026-05-08 06:13 | 53.81408 | -2.15092 | 38077 ft | 442 kts | 334° |
| 2026-05-08 06:14 | 53.87107 | -2.18990 | 38081 ft | 442 kts | 334° |
| 2026-05-08 06:14 | 53.92806 | -2.22890 | 38074 ft | 442 kts | 334° |
| 2026-05-08 06:15 | 53.98505 | -2.26815 | 38088 ft | 442 kts | 334° |
| 2026-05-08 06:15 | 54.04162 | -2.30722 | 38084 ft | 442 kts | 334° |
| 2026-05-08 06:16 | 54.09869 | -2.34658 | 38079 ft | 443 kts | 334° |
| 2026-05-08 06:16 | 54.15577 | -2.38606 | 38079 ft | 443 kts | 334° |
| 2026-05-08 06:17 | 54.24137 | -2.44565 | 38094 ft | 443 kts | 334° |
| 2026-05-08 06:17 | 54.29853 | -2.48560 | 38081 ft | 444 kts | 334° |
| 2026-05-08 06:18 | 54.35554 | -2.52550 | 37056 ft | 452 kts | 334° |
| 2026-05-08 06:18 | 54.38474 | -2.54602 | 36153 ft | 454 kts | 334° |
| 2026-05-08 06:18 | 54.41393 | -2.56652 | 35347 ft | 453 kts | 334° |
| 2026-05-08 06:19 | 54.44314 | -2.58706 | 34500 ft | 454 kts | 334° |
| 2026-05-08 06:19 | 54.47212 | -2.60747 | 33987 ft | 446 kts | 334° |
| 2026-05-08 06:19 | 54.50070 | -2.62762 | 33346 ft | 441 kts | 334° |
| 2026-05-08 06:19 | 54.52891 | -2.64754 | 32795 ft | 435 kts | 334° |
| 2026-05-08 06:20 | 54.55677 | -2.66722 | 32241 ft | 430 kts | 334° |
| 2026-05-08 06:20 | 54.58431 | -2.68670 | 31686 ft | 426 kts | 334° |
| 2026-05-08 06:20 | 54.61163 | -2.70603 | 31038 ft | 424 kts | 333° |
| 2026-05-08 06:20 | 54.63845 | -2.72512 | 30504 ft | 420 kts | 333° |
| 2026-05-08 06:21 | 54.66534 | -2.74434 | 29955 ft | 417 kts | 333° |
| 2026-05-08 06:21 | 54.69201 | -2.76345 | 29409 ft | 412 kts | 333° |
| 2026-05-08 06:21 | 54.71831 | -2.78229 | 28898 ft | 407 kts | 333° |
| 2026-05-08 06:21 | 54.74437 | -2.80097 | 28394 ft | 403 kts | 333° |
| 2026-05-08 06:22 | 54.77019 | -2.81948 | 27890 ft | 400 kts | 333° |
| 2026-05-08 06:22 | 54.79574 | -2.83780 | 27421 ft | 396 kts | 333° |
| 2026-05-08 06:22 | 54.82106 | -2.85599 | 26950 ft | 392 kts | 333° |
| 2026-05-08 06:22 | 54.84617 | -2.87408 | 26493 ft | 389 kts | 333° |
| 2026-05-08 06:23 | 54.87109 | -2.89205 | 26043 ft | 386 kts | 333° |
| 2026-05-08 06:23 | 54.89560 | -2.90978 | 25509 ft | 388 kts | 333° |
| 2026-05-08 06:23 | 54.92052 | -2.92785 | 24963 ft | 388 kts | 333° |
| 2026-05-08 06:23 | 54.94546 | -2.94588 | 24419 ft | 388 kts | 333° |
| 2026-05-08 06:24 | 54.97038 | -2.96389 | 23882 ft | 388 kts | 333° |
| 2026-05-08 06:24 | 54.99623 | -2.97732 | 23593 ft | 391 kts | 348° |
| 2026-05-08 06:24 | 55.02338 | -2.98073 | 23317 ft | 392 kts | 353° |
| 2026-05-08 06:24 | 55.05058 | -2.98310 | 23028 ft | 389 kts | 354° |
| 2026-05-08 06:25 | 55.07749 | -2.98525 | 22570 ft | 385 kts | 354° |
| 2026-05-08 06:25 | 55.10416 | -2.98726 | 22089 ft | 383 kts | 354° |
| 2026-05-08 06:25 | 55.13071 | -2.98927 | 21601 ft | 381 kts | 354° |
| 2026-05-08 06:25 | 55.15712 | -2.99132 | 21125 ft | 379 kts | 354° |
| 2026-05-08 06:26 | 55.18303 | -2.99339 | 20644 ft | 377 kts | 354° |
| 2026-05-08 06:26 | 55.20921 | -2.99550 | 20169 ft | 376 kts | 354° |
| 2026-05-08 06:26 | 55.23527 | -2.99762 | 19701 ft | 374 kts | 353° |
| 2026-05-08 06:26 | 55.26128 | -2.99977 | 19204 ft | 374 kts | 354° |
| 2026-05-08 06:27 | 55.28732 | -3.00192 | 18735 ft | 374 kts | 354° |
| 2026-05-08 06:27 | 55.31326 | -3.00406 | 18250 ft | 373 kts | 354° |
| 2026-05-08 06:27 | 55.33917 | -3.00620 | 17741 ft | 372 kts | 354° |
| 2026-05-08 06:27 | 55.36494 | -3.00827 | 17276 ft | 369 kts | 354° |
| 2026-05-08 06:28 | 55.39057 | -3.01032 | 16818 ft | 367 kts | 354° |
| 2026-05-08 06:28 | 55.41598 | -3.01236 | 16366 ft | 365 kts | 354° |
| 2026-05-08 06:28 | 55.44091 | -3.01435 | 15908 ft | 363 kts | 354° |
| 2026-05-08 06:28 | 55.46609 | -3.01636 | 15460 ft | 361 kts | 354° |
| 2026-05-08 06:29 | 55.49117 | -3.01841 | 15035 ft | 360 kts | 354° |
| 2026-05-08 06:29 | 55.51614 | -3.02052 | 14568 ft | 359 kts | 354° |
| 2026-05-08 06:29 | 55.54103 | -3.02264 | 14118 ft | 358 kts | 354° |
| 2026-05-08 06:29 | 55.56588 | -3.02473 | 13647 ft | 357 kts | 355° |
| 2026-05-08 06:30 | 55.59062 | -3.02677 | 13182 ft | 355 kts | 355° |
| 2026-05-08 06:30 | 55.61518 | -3.02878 | 12729 ft | 352 kts | 355° |
| 2026-05-08 06:30 | 55.63950 | -3.03074 | 12278 ft | 349 kts | 355° |
| 2026-05-08 06:30 | 55.66365 | -3.03268 | 11818 ft | 346 kts | 355° |
| 2026-05-08 06:31 | 55.68760 | -3.03467 | 11366 ft | 343 kts | 355° |
| 2026-05-08 06:31 | 55.71139 | -3.03665 | 10915 ft | 342 kts | 355° |
| 2026-05-08 06:31 | 55.73509 | -3.03856 | 10459 ft | 339 kts | 355° |
| 2026-05-08 06:31 | 55.75828 | -3.04043 | 10120 ft | 327 kts | 354° |
| 2026-05-08 06:32 | 55.78027 | -3.04222 | 9997 ft | 315 kts | 354° |
| 2026-05-08 06:32 | 55.80178 | -3.04401 | 9819 ft | 306 kts | 354° |
| 2026-05-08 06:32 | 55.82290 | -3.04583 | 9434 ft | 303 kts | 354° |
| 2026-05-08 06:32 | 55.84392 | -3.04752 | 9039 ft | 302 kts | 356° |
| 2026-05-08 06:33 | 55.86473 | -3.04386 | 8408 ft | 300 kts | 7° |
| 2026-05-08 06:33 | 55.88521 | -3.03724 | 7704 ft | 298 kts | 7° |
| 2026-05-08 06:33 | 55.90553 | -3.03060 | 7033 ft | 295 kts | 7° |
| 2026-05-08 06:33 | 55.92556 | -3.02404 | 6531 ft | 286 kts | 7° |
| 2026-05-08 06:34 | 55.94443 | -3.01905 | 6385 ft | 262 kts | 358° |
| 2026-05-08 06:34 | 55.96205 | -3.02064 | 5969 ft | 249 kts | 347° |
| 2026-05-08 06:34 | 55.97909 | -3.02465 | 5491 ft | 245 kts | 347° |
| 2026-05-08 06:34 | 55.99605 | -3.02861 | 4894 ft | 248 kts | 347° |
| 2026-05-08 06:35 | 56.01252 | -3.03347 | 4536 ft | 234 kts | 335° |
| 2026-05-08 06:35 | 56.02442 | -3.04920 | 4431 ft | 204 kts | 297° |
| 2026-05-08 06:35 | 56.02867 | -3.07229 | 4249 ft | 196 kts | 272° |
| 2026-05-08 06:35 | 56.03082 | -3.09612 | 3879 ft | 191 kts | 275° |
| 2026-05-08 06:36 | 56.03125 | -3.11935 | 3518 ft | 184 kts | 259° |
| 2026-05-08 06:36 | 56.02733 | -3.14108 | 3097 ft | 189 kts | 242° |
| 2026-05-08 06:36 | 56.02095 | -3.16155 | 2737 ft | 186 kts | 239° |
| 2026-05-08 06:36 | 56.01457 | -3.18081 | 2494 ft | 173 kts | 239° |
| 2026-05-08 06:37 | 56.00853 | -3.19885 | 2225 ft | 166 kts | 239° |
| 2026-05-08 06:37 | 56.00272 | -3.21613 | 1998 ft | 159 kts | 239° |
| 2026-05-08 06:37 | 55.99711 | -3.23282 | 1778 ft | 154 kts | 239° |
| 2026-05-08 06:37 | 55.99165 | -3.24905 | 1577 ft | 148 kts | 239° |
| 2026-05-08 06:38 | 55.98668 | -3.26380 | 1388 ft | 135 kts | 238° |
| 2026-05-08 06:38 | 55.98191 | -3.27796 | 1201 ft | 131 kts | 238° |
| 2026-05-08 06:38 | 55.97721 | -3.29188 | 1016 ft | 131 kts | 238° |
| 2026-05-08 06:38 | 55.97254 | -3.30573 | 829 ft | 130 kts | 239° |
| 2026-05-08 06:39 | 55.96787 | -3.31955 | 657 ft | 130 kts | 239° |
| 2026-05-08 06:39 | 55.96322 | -3.33325 | 473 ft | 129 kts | 238° |
| 2026-05-08 06:39 | 55.95854 | -3.34692 | 300 ft | 129 kts | 239° |
| 2026-05-08 06:39 | 55.95399 | -3.36074 | 118 ft | 127 kts | 239° |
| 2026-05-08 06:40 | 55.95012 | -3.37212 | 111 ft | 84 kts | 239° |
| 2026-05-08 06:40 | 55.94799 | -3.37841 | 115 ft | 29 kts | 239° |
| 2026-05-08 06:40 | 55.94725 | -3.38042 | 112 ft | 12 kts | 218° |
| 2026-05-08 06:40 | 55.94665 | -3.38029 | 113 ft | 8 kts | 148° |
| 2026-05-08 06:41 | 55.94612 | -3.37970 | 115 ft | 13 kts | 147° |
| 2026-05-08 06:41 | 55.94607 | -3.37838 | 114 ft | 13 kts | 59° |
| 2026-05-08 06:41 | 55.94680 | -3.37623 | 115 ft | 22 kts | 59° |
| 2026-05-08 06:41 | 55.94758 | -3.37391 | 113 ft | 21 kts | 58° |
| 2026-05-08 06:42 | 55.94831 | -3.37177 | 116 ft | 19 kts | 58° |
| 2026-05-08 06:42 | 55.94898 | -3.36980 | 116 ft | 18 kts | 59° |
| 2026-05-08 06:42 | 55.94957 | -3.36807 | 114 ft | 18 kts | 59° |
| 2026-05-08 06:42 | 55.95036 | -3.36574 | 115 ft | 24 kts | 59° |
| 2026-05-08 06:43 | 55.95121 | -3.36326 | 114 ft | 20 kts | 58° |
| 2026-05-08 06:43 | 55.95121 | -3.36148 | 115 ft | 14 kts | 108° |
| 2026-05-08 06:43 | 55.95092 | -3.35991 | 114 ft | 13 kts | 111° |
| 2026-05-08 06:43 | 55.95053 | -3.35861 | 114 ft | 11 kts | 124° |
| 2026-05-08 06:44 | 55.94992 | -3.35850 | 116 ft | 10 kts | 202° |
| 2026-05-08 06:44 | 55.94928 | -3.35830 | 115 ft | 10 kts | 138° |
| 2026-05-08 06:44 | 55.94894 | -3.35759 | 115 ft | 5 kts | 163° |
| 2026-05-08 06:44 | 55.94864 | -3.35777 | 114 ft | 4 kts | 208° |
| 2026-05-08 06:45 | 55.94842 | -3.35799 | 115 ft | 3 kts | 208° |
| 2026-05-08 06:45 | 55.94834 | -3.35806 | 114 ft | 1 kts | 208° |